Time;durP1;ratioP1;P1;durP2;ratioP2;P2;SDS_P1;SDS_P2;PMS_P1;PMS_P2;Temp;Humidity;BMP_temperature;BMP_pressure;BME280_temperature;BME280_humidity;BME280_pressure;Samples;Min_cycle;Max_cycle;Signal;HPM_P1;HPM_P2
2022/10/17 00:00:04;;;;;;;0.30;0.30;;;;;;;;;;7387897;19;20124;-69
2022/10/17 00:02:29;;;;;;;0.30;0.30;;;;;;;;;;7387557;19;20125;-69
2022/10/17 00:04:54;;;;;;;0.20;0.20;;;;;;;;;;7386209;19;20630;-70
2022/10/17 00:07:20;;;;;;;0.30;0.30;;;;;;;;;;7384907;19;20121;-71
2022/10/17 00:09:45;;;;;;;0.20;0.20;;;;;;;;;;7386608;19;20114;-70
2022/10/17 00:12:10;;;;;;;0.20;0.20;;;;;;;;;;7386966;19;20483;-69
2022/10/17 00:14:36;;;;;;;0.95;0.95;;;;;;;;;;7386663;19;20652;-69
2022/10/17 00:17:01;;;;;;;0.30;0.30;;;;;;;;;;7384016;19;20118;-69
2022/10/17 00:19:27;;;;;;;0.20;0.20;;;;;;;;;;7388046;19;20140;-70
2022/10/17 00:21:52;;;;;;;0.40;0.40;;;;;;;;;;7385606;19;20153;-72
2022/10/17 00:24:17;;;;;;;0.30;0.30;;;;;;;;;;7379647;19;20172;-69
2022/10/17 00:26:43;;;;;;;1.85;0.85;;;;;;;;;;7388598;19;20450;-69
2022/10/17 00:29:08;;;;;;;0.55;0.55;;;;;;;;;;7385551;19;20132;-69
2022/10/17 00:31:34;;;;;;;0.30;0.30;;;;;;;;;;7386153;19;20148;-72
2022/10/17 00:33:59;;;;;;;0.30;0.30;;;;;;;;;;7387990;19;20502;-69
2022/10/17 00:36:25;;;;;;;6.82;2.80;;;;;;;;;;7382833;19;20172;-70
2022/10/17 00:38:56;;;;;;;0.30;0.30;;;;;;;;;;7386357;19;20135;-70
2022/10/17 00:41:24;;;;;;;0.30;0.30;;;;;;;;;;7385163;19;20171;-70
2022/10/17 00:44:26;;;;;;;0.30;0.30;;;;;;;;;;7386564;19;20159;-70
2022/10/17 00:46:51;;;;;;;0.50;0.50;;;;;;;;;;7385958;19;20136;-70
2022/10/17 00:49:17;;;;;;;0.30;0.30;;;;;;;;;;7374785;19;20508;-70
2022/10/17 00:51:49;;;;;;;0.30;0.30;;;;;;;;;;7373828;19;20168;-70
2022/10/17 00:54:16;;;;;;;0.25;0.25;;;;;;;;;;7371260;19;20677;-70
2022/10/17 00:56:42;;;;;;;0.30;0.30;;;;;;;;;;7371327;19;20125;-70
2022/10/17 00:59:10;;;;;;;0.30;0.30;;;;;;;;;;7374038;19;20125;-70
2022/10/17 01:01:35;;;;;;;0.50;0.50;;;;;;;;;;7379503;19;20134;-70
2022/10/17 01:04:00;;;;;;;0.30;0.30;;;;;;;;;;7379154;19;20129;-68
2022/10/17 01:06:26;;;;;;;0.30;0.30;;;;;;;;;;7376711;19;20834;-70
2022/10/17 01:08:51;;;;;;;0.30;0.30;;;;;;;;;;7380344;19;20151;-70
2022/10/17 01:11:41;;;;;;;0.30;0.30;;;;;;;;;;7378809;19;20129;-70
2022/10/17 01:14:21;;;;;;;0.25;0.25;;;;;;;;;;7380617;19;20144;-69
2022/10/17 01:17:04;;;;;;;0.30;0.30;;;;;;;;;;7390706;19;20125;-69
2022/10/17 01:19:38;;;;;;;0.30;0.30;;;;;;;;;;7393240;19;20161;-69
2022/10/17 01:22:21;;;;;;;0.20;0.20;;;;;;;;;;7388475;19;20144;-70
2022/10/17 01:25:33;;;;;;;0.77;0.77;;;;;;;;;;7390779;19;20511;-70
2022/10/17 01:28:18;;;;;;;0.30;0.30;;;;;;;;;;7392940;19;20133;-69
2022/10/17 01:31:05;;;;;;;0.40;0.40;;;;;;;;;;7390900;19;20845;-70
2022/10/17 01:33:36;;;;;;;0.30;0.30;;;;;;;;;;7394080;19;20188;-69
2022/10/17 01:36:16;;;;;;;0.30;0.30;;;;;;;;;;7388720;19;20173;-70
2022/10/17 01:38:45;;;;;;;0.28;0.28;;;;;;;;;;7392141;19;20117;-70
2022/10/17 01:41:24;;;;;;;0.30;0.30;;;;;;;;;;7388843;19;20144;-70
2022/10/17 01:43:58;;;;;;;1.03;0.50;;;;;;;;;;7376250;19;20121;-70
2022/10/17 01:46:31;;;;;;;0.20;0.20;;;;;;;;;;7376278;19;20128;-69
2022/10/17 01:48:59;;;;;;;0.30;0.30;;;;;;;;;;7389564;19;20663;-70
2022/10/17 01:51:29;;;;;;;0.50;0.50;;;;;;;;;;7389125;19;20153;-70
2022/10/17 01:54:01;;;;;;;0.30;0.30;;;;;;;;;;7390360;19;20125;-70
2022/10/17 01:56:29;;;;;;;0.20;0.20;;;;;;;;;;7391608;19;20184;-69
2022/10/17 01:58:57;;;;;;;0.30;0.30;;;;;;;;;;7389686;19;20135;-70
2022/10/17 02:01:24;;;;;;;0.30;0.30;;;;;;;;;;7382364;19;20144;-69
2022/10/17 02:03:50;;;;;;;0.30;0.30;;;;;;;;;;7388688;19;20450;-70
2022/10/17 02:06:16;;;;;;;0.30;0.30;;;;;;;;;;7388266;19;20149;-70
2022/10/17 02:08:47;;;;;;;0.20;0.20;;;;;;;;;;7389571;19;20145;-69
2022/10/17 02:11:18;;;;;;;0.30;0.30;;;;;;;;;;7388371;19;20144;-70
2022/10/17 02:13:53;;;;;;;0.30;0.30;;;;;;;;;;7391292;19;20121;-69
2022/10/17 02:16:21;;;;;;;0.30;0.30;;;;;;;;;;7390460;19;20169;-69
2022/10/17 02:18:56;;;;;;;0.30;0.30;;;;;;;;;;7388316;19;20117;-69
2022/10/17 02:21:37;;;;;;;0.20;0.20;;;;;;;;;;7391140;19;20129;-70
2022/10/17 02:24:28;;;;;;;0.40;0.40;;;;;;;;;;7389353;19;20117;-69
2022/10/17 02:27:25;;;;;;;0.40;0.40;;;;;;;;;;7390694;19;20535;-70
2022/10/17 02:30:11;;;;;;;0.20;0.20;;;;;;;;;;7381047;19;20662;-68
2022/10/17 02:32:42;;;;;;;0.30;0.30;;;;;;;;;;7385763;19;20133;-69
2022/10/17 02:35:10;;;;;;;0.30;0.30;;;;;;;;;;7389151;19;20651;-69
2022/10/17 02:37:36;;;;;;;0.30;0.30;;;;;;;;;;7386706;19;20610;-70
2022/10/17 02:40:02;;;;;;;0.40;0.40;;;;;;;;;;7385292;19;20125;-70
2022/10/17 02:42:28;;;;;;;0.30;0.30;;;;;;;;;;7389937;19;20148;-70
2022/10/17 02:44:54;;;;;;;0.40;0.40;;;;;;;;;;7382529;19;20153;-70
2022/10/17 02:47:26;;;;;;;0.30;0.30;;;;;;;;;;7387815;19;20158;-70
2022/10/17 02:49:56;;;;;;;0.30;0.30;;;;;;;;;;7380746;19;20144;-69
2022/10/17 02:52:27;;;;;;;0.30;0.30;;;;;;;;;;7388507;19;20248;-69
2022/10/17 02:55:13;;;;;;;0.30;0.30;;;;;;;;;;7385319;19;20776;-70
2022/10/17 02:57:40;;;;;;;0.30;0.30;;;;;;;;;;7387175;19;20121;-69
2022/10/17 03:00:09;;;;;;;0.30;0.30;;;;;;;;;;7386206;19;20156;-69
2022/10/17 03:02:43;;;;;;;0.70;0.70;;;;;;;;;;7390181;19;20149;-70
2022/10/17 03:05:10;;;;;;;0.40;0.40;;;;;;;;;;7386876;19;20171;-69
2022/10/17 03:07:35;;;;;;;0.30;0.30;;;;;;;;;;7388422;19;20608;-68
2022/10/17 03:10:00;;;;;;;0.30;0.30;;;;;;;;;;7386568;19;20124;-69
2022/10/17 03:12:26;;;;;;;0.30;0.30;;;;;;;;;;7380750;19;20125;-69
2022/10/17 03:14:51;;;;;;;0.40;0.40;;;;;;;;;;7384910;19;20153;-70
2022/10/17 03:17:16;;;;;;;0.30;0.30;;;;;;;;;;7387969;19;20585;-69
2022/10/17 03:19:41;;;;;;;0.30;0.30;;;;;;;;;;7380691;19;20143;-68
2022/10/17 03:22:07;;;;;;;0.40;0.40;;;;;;;;;;7377113;19;20125;-70
2022/10/17 03:24:32;;;;;;;0.33;0.33;;;;;;;;;;7378533;19;20484;-68
2022/10/17 03:26:57;;;;;;;0.30;0.30;;;;;;;;;;7380997;19;20642;-69
2022/10/17 03:29:23;;;;;;;0.30;0.30;;;;;;;;;;7378474;19;20135;-69
2022/10/17 03:31:48;;;;;;;0.30;0.30;;;;;;;;;;7376615;19;20482;-69
2022/10/17 03:34:16;;;;;;;0.50;0.50;;;;;;;;;;7379209;19;20193;-70
2022/10/17 03:36:42;;;;;;;0.40;0.40;;;;;;;;;;7387511;19;20156;-69
2022/10/17 03:39:07;;;;;;;1.27;0.60;;;;;;;;;;7387755;19;20156;-69
2022/10/17 03:41:32;;;;;;;0.30;0.30;;;;;;;;;;7383075;19;20145;-68
2022/10/17 03:43:58;;;;;;;0.30;0.30;;;;;;;;;;7388074;19;20121;-69
2022/10/17 03:46:23;;;;;;;0.37;0.37;;;;;;;;;;7384852;19;20488;-69
2022/10/17 03:48:48;;;;;;;0.30;0.30;;;;;;;;;;7387049;19;20132;-70
2022/10/17 03:51:14;;;;;;;0.40;0.40;;;;;;;;;;7388579;19;20717;-70
2022/10/17 03:53:39;;;;;;;0.70;0.53;;;;;;;;;;7386606;19;20125;-70
2022/10/17 03:56:24;;;;;;;0.40;0.40;;;;;;;;;;7385034;19;20149;-69
2022/10/17 03:58:49;;;;;;;0.43;0.43;;;;;;;;;;7385673;19;20135;-69
2022/10/17 04:01:16;;;;;;;0.30;0.30;;;;;;;;;;7387604;19;20533;-69
2022/10/17 04:03:42;;;;;;;0.27;0.27;;;;;;;;;;7385172;19;20129;-69
2022/10/17 04:06:08;;;;;;;0.30;0.30;;;;;;;;;;7386498;19;20224;-70
2022/10/17 04:08:33;;;;;;;0.90;0.47;;;;;;;;;;7384492;19;20572;-70
2022/10/17 04:10:59;;;;;;;0.40;0.40;;;;;;;;;;7385899;19;20121;-69
2022/10/17 04:13:25;;;;;;;0.40;0.40;;;;;;;;;;7385186;19;20185;-69
2022/10/17 04:16:01;;;;;;;0.33;0.33;;;;;;;;;;7386567;19;20156;-69
2022/10/17 04:18:27;;;;;;;0.30;0.30;;;;;;;;;;7383329;19;20578;-69
2022/10/17 04:20:53;;;;;;;0.30;0.30;;;;;;;;;;7384294;19;20141;-69
2022/10/17 04:23:18;;;;;;;0.40;0.40;;;;;;;;;;7385389;19;20499;-69
2022/10/17 04:25:44;;;;;;;0.27;0.27;;;;;;;;;;7384740;19;20149;-68
2022/10/17 04:28:09;;;;;;;0.30;0.30;;;;;;;;;;7387722;19;20167;-69
2022/10/17 04:30:35;;;;;;;0.77;0.77;;;;;;;;;;7385765;19;20138;-69
2022/10/17 04:33:00;;;;;;;0.30;0.30;;;;;;;;;;7385463;19;20509;-68
2022/10/17 04:35:25;;;;;;;0.77;0.60;;;;;;;;;;7393483;19;20157;-70
2022/10/17 04:37:51;;;;;;;0.20;0.20;;;;;;;;;;7392955;19;20133;-70
2022/10/17 04:40:16;;;;;;;0.40;0.40;;;;;;;;;;7391426;19;20148;-69
2022/10/17 04:42:41;;;;;;;0.30;0.30;;;;;;;;;;7393620;19;20606;-69
2022/10/17 04:45:07;;;;;;;0.30;0.30;;;;;;;;;;7394337;19;20169;-68
2022/10/17 04:47:32;;;;;;;0.60;0.60;;;;;;;;;;7392620;19;20646;-69
2022/10/17 04:49:57;;;;;;;0.30;0.30;;;;;;;;;;7390048;19;20595;-69
2022/10/17 04:52:24;;;;;;;0.30;0.30;;;;;;;;;;7392649;19;20192;-68
2022/10/17 04:54:49;;;;;;;0.30;0.30;;;;;;;;;;7390722;19;20510;-68
2022/10/17 04:57:15;;;;;;;0.30;0.30;;;;;;;;;;7394031;19;20121;-70
2022/10/17 04:59:40;;;;;;;0.30;0.30;;;;;;;;;;7387901;19;20129;-69
2022/10/17 05:02:05;;;;;;;0.30;0.30;;;;;;;;;;7392112;19;20554;-68
2022/10/17 05:04:31;;;;;;;0.27;0.27;;;;;;;;;;7389302;19;20661;-69
2022/10/17 05:06:56;;;;;;;0.30;0.30;;;;;;;;;;7390965;19;20463;-69
2022/10/17 05:09:21;;;;;;;0.27;0.27;;;;;;;;;;7391074;19;20125;-68
2022/10/17 05:11:47;;;;;;;1.10;0.40;;;;;;;;;;7390593;19;20140;-69
2022/10/17 05:14:12;;;;;;;0.30;0.30;;;;;;;;;;7391361;19;20121;-68
2022/10/17 05:16:37;;;;;;;0.67;0.67;;;;;;;;;;7390109;19;20121;-69
2022/10/17 05:19:03;;;;;;;0.30;0.30;;;;;;;;;;7393988;19;20160;-69
2022/10/17 05:21:29;;;;;;;0.30;0.30;;;;;;;;;;7392291;19;20125;-68
2022/10/17 05:23:54;;;;;;;0.50;0.50;;;;;;;;;;7391363;19;20148;-67
2022/10/17 05:26:21;;;;;;;0.30;0.30;;;;;;;;;;7388584;19;20152;-69
2022/10/17 05:28:46;;;;;;;0.40;0.40;;;;;;;;;;7391008;19;20140;-69
2022/10/17 05:31:12;;;;;;;0.33;0.33;;;;;;;;;;7383007;19;20949;-69
2022/10/17 05:33:38;;;;;;;0.50;0.50;;;;;;;;;;7392251;19;20762;-68
2022/10/17 05:36:04;;;;;;;0.30;0.30;;;;;;;;;;7391863;19;20168;-69
2022/10/17 05:38:30;;;;;;;0.50;0.50;;;;;;;;;;7384232;19;20301;-68
2022/10/17 05:40:57;;;;;;;0.30;0.30;;;;;;;;;;7386317;19;20924;-68
2022/10/17 05:43:22;;;;;;;0.23;0.23;;;;;;;;;;7376653;19;20827;-69
2022/10/17 05:45:47;;;;;;;0.30;0.30;;;;;;;;;;7383153;19;20148;-69
2022/10/17 05:48:13;;;;;;;0.30;0.30;;;;;;;;;;7386580;19;20157;-68
2022/10/17 05:50:38;;;;;;;0.20;0.20;;;;;;;;;;7389719;19;20136;-69
2022/10/17 05:53:03;;;;;;;0.30;0.30;;;;;;;;;;7389901;19;20217;-68
2022/10/17 05:55:29;;;;;;;0.30;0.30;;;;;;;;;;7384823;19;20497;-69
2022/10/17 05:57:54;;;;;;;0.30;0.30;;;;;;;;;;7387536;19;20145;-69
2022/10/17 06:00:20;;;;;;;0.23;0.23;;;;;;;;;;7373350;19;20133;-68
2022/10/17 06:02:46;;;;;;;0.30;0.30;;;;;;;;;;7388176;19;20156;-68
2022/10/17 06:05:12;;;;;;;1.60;0.50;;;;;;;;;;7385054;19;20144;-69
2022/10/17 06:07:37;;;;;;;0.30;0.30;;;;;;;;;;7376646;19;20524;-69
2022/10/17 06:10:03;;;;;;;0.20;0.20;;;;;;;;;;7383369;19;20617;-69
2022/10/17 06:12:29;;;;;;;0.30;0.30;;;;;;;;;;7388687;19;20654;-69
2022/10/17 06:14:54;;;;;;;0.30;0.30;;;;;;;;;;7379285;19;20586;-68
2022/10/17 06:17:19;;;;;;;0.20;0.20;;;;;;;;;;7375263;19;20525;-68
2022/10/17 06:19:45;;;;;;;0.30;0.30;;;;;;;;;;7379874;19;20125;-68
2022/10/17 06:22:10;;;;;;;0.20;0.20;;;;;;;;;;7383574;19;20149;-68
2022/10/17 06:24:35;;;;;;;0.30;0.30;;;;;;;;;;7383109;19;20185;-69
2022/10/17 06:27:01;;;;;;;0.40;0.40;;;;;;;;;;7376654;19;20132;-68
2022/10/17 06:29:26;;;;;;;0.40;0.40;;;;;;;;;;7375405;19;20150;-69
2022/10/17 06:31:51;;;;;;;0.30;0.30;;;;;;;;;;7385869;19;20119;-69
2022/10/17 06:34:17;;;;;;;0.30;0.30;;;;;;;;;;7386913;19;20708;-68
2022/10/17 06:36:42;;;;;;;0.30;0.30;;;;;;;;;;7383963;19;20200;-69
2022/10/17 06:39:07;;;;;;;0.30;0.30;;;;;;;;;;7381142;19;20694;-69
2022/10/17 06:41:33;;;;;;;0.30;0.30;;;;;;;;;;7386807;19;20145;-69
2022/10/17 06:43:58;;;;;;;0.30;0.30;;;;;;;;;;7390598;19;20193;-68
2022/10/17 06:46:25;;;;;;;0.30;0.30;;;;;;;;;;7387735;19;20132;-69
2022/10/17 06:48:51;;;;;;;0.30;0.30;;;;;;;;;;7386615;19;20128;-69
2022/10/17 06:51:16;;;;;;;0.30;0.30;;;;;;;;;;7386750;19;20137;-69
2022/10/17 06:53:42;;;;;;;0.30;0.30;;;;;;;;;;7388207;19;20137;-69
2022/10/17 06:56:08;;;;;;;0.30;0.30;;;;;;;;;;7387311;19;20160;-69
2022/10/17 06:58:37;;;;;;;0.60;0.60;;;;;;;;;;7385823;19;20136;-69
2022/10/17 07:01:09;;;;;;;0.27;0.27;;;;;;;;;;7386007;19;20159;-69
2022/10/17 07:03:35;;;;;;;0.30;0.30;;;;;;;;;;7386840;19;20221;-69
2022/10/17 07:06:00;;;;;;;0.30;0.30;;;;;;;;;;7385997;19;20626;-68
2022/10/17 07:08:25;;;;;;;0.70;0.70;;;;;;;;;;7388569;19;20195;-69
2022/10/17 07:10:51;;;;;;;0.60;0.60;;;;;;;;;;7385872;19;20474;-69
2022/10/17 07:13:17;;;;;;;0.70;0.70;;;;;;;;;;7380897;19;20487;-69
2022/10/17 07:15:43;;;;;;;0.43;0.43;;;;;;;;;;7380034;19;20234;-69
2022/10/17 07:18:08;;;;;;;0.43;0.43;;;;;;;;;;7387153;19;20595;-68
2022/10/17 07:20:34;;;;;;;0.40;0.40;;;;;;;;;;7381661;19;20192;-69
2022/10/17 07:22:59;;;;;;;0.30;0.30;;;;;;;;;;7383149;19;20117;-69
2022/10/17 07:25:24;;;;;;;0.20;0.20;;;;;;;;;;7384046;19;20153;-68
2022/10/17 07:27:51;;;;;;;0.20;0.20;;;;;;;;;;7373978;19;20117;-69
2022/10/17 07:30:16;;;;;;;0.30;0.30;;;;;;;;;;7372249;19;20125;-69
2022/10/17 07:32:42;;;;;;;0.40;0.40;;;;;;;;;;7384966;19;20164;-68
2022/10/17 07:35:07;;;;;;;0.27;0.27;;;;;;;;;;7380352;19;20194;-68
2022/10/17 07:37:33;;;;;;;0.50;0.50;;;;;;;;;;7385012;19;20138;-71
2022/10/17 07:39:58;;;;;;;0.60;0.60;;;;;;;;;;7378236;19;20535;-70
2022/10/17 07:42:23;;;;;;;0.50;0.50;;;;;;;;;;7387958;19;20709;-70
2022/10/17 07:44:49;;;;;;;0.40;0.40;;;;;;;;;;7386358;19;20628;-71
2022/10/17 07:47:14;;;;;;;0.70;0.70;;;;;;;;;;7382444;19;20117;-71
2022/10/17 07:49:41;;;;;;;0.40;0.40;;;;;;;;;;7377538;19;20144;-71
2022/10/17 07:52:09;;;;;;;0.30;0.30;;;;;;;;;;7380707;19;20537;-69
2022/10/17 07:54:34;;;;;;;0.40;0.40;;;;;;;;;;7374053;19;20164;-70
2022/10/17 07:57:00;;;;;;;0.30;0.30;;;;;;;;;;7381304;19;20121;-70
2022/10/17 07:59:25;;;;;;;0.30;0.30;;;;;;;;;;7386034;19;20450;-70
2022/10/17 08:01:54;;;;;;;0.30;0.30;;;;;;;;;;7386495;19;20121;-70
2022/10/17 08:04:19;;;;;;;0.40;0.40;;;;;;;;;;7386225;19;20607;-70
2022/10/17 08:06:45;;;;;;;0.40;0.40;;;;;;;;;;7388478;19;20144;-70
2022/10/17 08:09:10;;;;;;;0.30;0.30;;;;;;;;;;7390491;19;20137;-70
2022/10/17 08:11:36;;;;;;;0.30;0.30;;;;;;;;;;7394586;19;20536;-70
2022/10/17 08:14:01;;;;;;;0.40;0.40;;;;;;;;;;7392956;19;20125;-70
2022/10/17 08:16:26;;;;;;;0.30;0.30;;;;;;;;;;7386958;19;20568;-70
2022/10/17 08:18:52;;;;;;;0.22;0.22;;;;;;;;;;7392691;19;20154;-70
2022/10/17 08:21:17;;;;;;;0.30;0.30;;;;;;;;;;7392554;19;20495;-70
2022/10/17 08:23:42;;;;;;;0.30;0.30;;;;;;;;;;7394761;19;20141;-70
2022/10/17 08:26:12;;;;;;;0.30;0.30;;;;;;;;;;7392735;19;20499;-69
2022/10/17 08:28:38;;;;;;;0.30;0.30;;;;;;;;;;7391849;19;20149;-70
2022/10/17 08:31:10;;;;;;;0.30;0.30;;;;;;;;;;7390676;19;20129;-70
2022/10/17 08:33:35;;;;;;;0.25;0.25;;;;;;;;;;7389141;19;21650;-70
2022/10/17 08:36:02;;;;;;;0.30;0.30;;;;;;;;;;7385696;19;20551;-70
2022/10/17 08:38:28;;;;;;;0.30;0.30;;;;;;;;;;7384073;19;20675;-69
2022/10/17 08:40:56;;;;;;;0.20;0.20;;;;;;;;;;7384289;19;20607;-70
2022/10/17 08:43:30;;;;;;;0.30;0.30;;;;;;;;;;7390028;19;20129;-69
2022/10/17 08:46:04;;;;;;;0.40;0.40;;;;;;;;;;7387223;19;20164;-68
2022/10/17 08:48:38;;;;;;;0.30;0.30;;;;;;;;;;7380761;19;20124;-70
2022/10/17 08:51:19;;;;;;;0.30;0.30;;;;;;;;;;7381454;19;20523;-70
2022/10/17 08:54:04;;;;;;;0.30;0.30;;;;;;;;;;7381090;19;20132;-70
2022/10/17 08:56:39;;;;;;;0.30;0.30;;;;;;;;;;7380008;19;20158;-70
2022/10/17 08:59:11;;;;;;;0.30;0.30;;;;;;;;;;7375643;19;20125;-69
2022/10/17 09:02:02;;;;;;;0.20;0.20;;;;;;;;;;7372269;19;20504;-69
2022/10/17 09:04:40;;;;;;;0.30;0.30;;;;;;;;;;7367912;19;20149;-69
2022/10/17 09:07:33;;;;;;;0.30;0.30;;;;;;;;;;7369361;19;20148;-69
2022/10/17 09:10:14;;;;;;;0.30;0.30;;;;;;;;;;7372779;19;20148;-70
2022/10/17 09:13:11;;;;;;;0.20;0.20;;;;;;;;;;7362641;19;20533;-72
2022/10/17 09:15:45;;;;;;;0.20;0.20;;;;;;;;;;7364980;19;20172;-70
2022/10/17 09:18:14;;;;;;;0.30;0.30;;;;;;;;;;7373280;19;20121;-71
2022/10/17 09:20:44;;;;;;;0.30;0.30;;;;;;;;;;7365623;19;20152;-70
2022/10/17 09:23:29;;;;;;;0.30;0.30;;;;;;;;;;7379163;19;20200;-71
2022/10/17 09:25:57;;;;;;;0.52;0.52;;;;;;;;;;7371677;19;20160;-70
2022/10/17 09:28:22;;;;;;;0.30;0.30;;;;;;;;;;7360731;19;20568;-70
2022/10/17 09:30:49;;;;;;;0.30;0.30;;;;;;;;;;7364874;19;20144;-70
2022/10/17 09:33:19;;;;;;;0.30;0.30;;;;;;;;;;7372152;19;20121;-70
2022/10/17 09:35:45;;;;;;;0.40;0.40;;;;;;;;;;7378627;19;20526;-71
2022/10/17 09:38:20;;;;;;;0.82;0.82;;;;;;;;;;7386112;19;20129;-71
2022/10/17 09:40:52;;;;;;;0.30;0.30;;;;;;;;;;7388161;19;20150;-71
2022/10/17 09:43:17;;;;;;;0.30;0.30;;;;;;;;;;7376384;19;20797;-70
2022/10/17 09:46:08;;;;;;;0.30;0.30;;;;;;;;;;7373650;19;20219;-70
2022/10/17 09:48:45;;;;;;;0.30;0.30;;;;;;;;;;7381703;19;20476;-71
2022/10/17 09:51:11;;;;;;;0.30;0.30;;;;;;;;;;7373854;19;20117;-70
2022/10/17 09:53:39;;;;;;;0.20;0.20;;;;;;;;;;7380075;19;20123;-71
2022/10/17 09:56:09;;;;;;;0.30;0.30;;;;;;;;;;7373585;19;20168;-70
2022/10/17 09:58:51;;;;;;;0.30;0.30;;;;;;;;;;7369882;19;20195;-71
2022/10/17 10:01:30;;;;;;;0.40;0.40;;;;;;;;;;7367379;19;20222;-71
2022/10/17 10:04:15;;;;;;;0.30;0.30;;;;;;;;;;7362923;19;20152;-71
2022/10/17 10:07:03;;;;;;;0.70;0.70;;;;;;;;;;7376547;19;20579;-70
2022/10/17 10:09:32;;;;;;;0.30;0.30;;;;;;;;;;7363123;19;20196;-71
2022/10/17 10:12:00;;;;;;;0.30;0.30;;;;;;;;;;7378386;19;20133;-71
2022/10/17 10:14:36;;;;;;;3.83;0.77;;;;;;;;;;7376423;19;20486;-71
2022/10/17 10:17:04;;;;;;;0.30;0.30;;;;;;;;;;7382033;19;20125;-70
2022/10/17 10:19:34;;;;;;;0.30;0.30;;;;;;;;;;7384137;19;20117;-71
2022/10/17 10:22:16;;;;;;;0.30;0.30;;;;;;;;;;7364932;19;20541;-70
2022/10/17 10:24:42;;;;;;;0.70;0.70;;;;;;;;;;7365451;19;23439;-71
2022/10/17 10:27:14;;;;;;;0.30;0.30;;;;;;;;;;7365692;19;20133;-71
2022/10/17 10:29:41;;;;;;;0.32;0.32;;;;;;;;;;7366105;19;20117;-70
2022/10/17 10:32:39;;;;;;;0.30;0.30;;;;;;;;;;7361194;19;20125;-71
2022/10/17 10:35:17;;;;;;;0.20;0.20;;;;;;;;;;7353895;19;20169;-70
2022/10/17 10:37:45;;;;;;;0.30;0.30;;;;;;;;;;7369983;19;20125;-71
2022/10/17 10:40:26;;;;;;;0.30;0.30;;;;;;;;;;7376061;19;21060;-71
2022/10/17 10:42:54;;;;;;;0.70;0.70;;;;;;;;;;7378764;19;20141;-70
2022/10/17 10:45:23;;;;;;;0.30;0.30;;;;;;;;;;7368555;19;20226;-71
2022/10/17 10:48:00;;;;;;;0.30;0.30;;;;;;;;;;7357118;19;20121;-71
2022/10/17 10:50:36;;;;;;;0.30;0.30;;;;;;;;;;7353833;19;20514;-70
2022/10/17 10:53:14;;;;;;;0.30;0.30;;;;;;;;;;7358233;19;20121;-71
2022/10/17 10:55:46;;;;;;;0.30;0.30;;;;;;;;;;7368128;19;20152;-71
2022/10/17 10:58:38;;;;;;;0.85;0.85;;;;;;;;;;7385768;19;20148;-71
2022/10/17 11:01:08;;;;;;;0.30;0.30;;;;;;;;;;7382115;19;20224;-71
2022/10/17 11:03:59;;;;;;;3.45;0.77;;;;;;;;;;7381855;19;20487;-70
2022/10/17 11:06:28;;;;;;;0.35;0.35;;;;;;;;;;7381965;19;20138;-71
2022/10/17 11:09:08;;;;;;;0.50;0.50;;;;;;;;;;7387971;19;20128;-71
2022/10/17 11:11:39;;;;;;;0.35;0.35;;;;;;;;;;7383307;19;20128;-71
2022/10/17 11:14:22;;;;;;;0.45;0.45;;;;;;;;;;7380929;19;20129;-70
2022/10/17 11:16:52;;;;;;;0.38;0.38;;;;;;;;;;7382941;19;20120;-70
2022/10/17 11:19:30;;;;;;;0.30;0.30;;;;;;;;;;7389099;19;20140;-70
2022/10/17 11:22:24;;;;;;;0.40;0.40;;;;;;;;;;7334919;19;20165;-70
2022/10/17 11:25:03;;;;;;;0.30;0.30;;;;;;;;;;7360609;19;20168;-70
2022/10/17 11:27:29;;;;;;;0.57;0.57;;;;;;;;;;7366002;19;20659;-70
2022/10/17 11:29:55;;;;;;;0.47;0.47;;;;;;;;;;7363022;19;20583;-69
2022/10/17 11:32:47;;;;;;;0.70;0.70;;;;;;;;;;7367031;19;20140;-70
2022/10/17 11:35:22;;;;;;;0.30;0.30;;;;;;;;;;7363194;19;20169;-69
2022/10/17 11:38:07;;;;;;;0.30;0.30;;;;;;;;;;7358357;19;20145;-68
2022/10/17 11:40:34;;;;;;;0.32;0.32;;;;;;;;;;7360859;19;20208;-68
2022/10/17 11:43:05;;;;;;;0.30;0.30;;;;;;;;;;7373688;19;20655;-69
2022/10/17 11:45:39;;;;;;;0.30;0.30;;;;;;;;;;7363093;19;20181;-69
2022/10/17 11:48:41;;;;;;;0.30;0.30;;;;;;;;;;7362619;19;20140;-68
2022/10/17 11:51:09;;;;;;;0.30;0.30;;;;;;;;;;7367510;19;20148;-69
2022/10/17 11:53:54;;;;;;;0.30;0.30;;;;;;;;;;7337305;19;20127;-69
2022/10/17 11:56:38;;;;;;;0.73;0.73;;;;;;;;;;7363543;19;20165;-69
2022/10/17 11:59:19;;;;;;;0.30;0.30;;;;;;;;;;7360861;19;20135;-69
2022/10/17 12:01:55;;;;;;;0.30;0.30;;;;;;;;;;7374686;19;20124;-69
2022/10/17 12:05:01;;;;;;;0.40;0.40;;;;;;;;;;7378585;19;20167;-69
2022/10/17 12:07:43;;;;;;;0.63;0.63;;;;;;;;;;7372441;19;20144;-69
2022/10/17 12:10:46;;;;;;;0.40;0.40;;;;;;;;;;7372494;19;20196;-69
2022/10/17 12:13:26;;;;;;;0.75;0.75;;;;;;;;;;7369099;19;20231;-69
2022/10/17 12:15:52;;;;;;;0.30;0.30;;;;;;;;;;7371540;19;20152;-69
2022/10/17 12:18:17;;;;;;;0.50;0.50;;;;;;;;;;7369544;19;20135;-69
2022/10/17 12:20:57;;;;;;;0.30;0.30;;;;;;;;;;7362216;19;20129;-69
2022/10/17 12:23:26;;;;;;;0.32;0.32;;;;;;;;;;7374402;19;20137;-69
2022/10/17 12:26:03;;;;;;;0.52;0.52;;;;;;;;;;7367970;19;20160;-69
2022/10/17 12:28:38;;;;;;;0.55;0.55;;;;;;;;;;7367495;19;20137;-69
2022/10/17 12:31:08;;;;;;;0.40;0.40;;;;;;;;;;7372556;19;20133;-68
2022/10/17 12:33:55;;;;;;;1.75;0.77;;;;;;;;;;7383132;19;20587;-69
2022/10/17 12:36:26;;;;;;;0.40;0.40;;;;;;;;;;7382220;19;20174;-69
2022/10/17 12:39:00;;;;;;;0.40;0.40;;;;;;;;;;7378035;19;20161;-69
2022/10/17 12:41:37;;;;;;;0.38;0.38;;;;;;;;;;7377014;19;20540;-68
2022/10/17 12:44:26;;;;;;;0.50;0.50;;;;;;;;;;7381768;19;20144;-69
2022/10/17 12:47:17;;;;;;;0.70;0.70;;;;;;;;;;7382066;19;20144;-70
2022/10/17 12:49:44;;;;;;;0.88;0.88;;;;;;;;;;7376537;19;20149;-69
2022/10/17 12:52:10;;;;;;;0.50;0.50;;;;;;;;;;7372486;19;20132;-69
2022/10/17 12:54:40;;;;;;;0.43;0.43;;;;;;;;;;7375446;19;20152;-69
2022/10/17 12:57:34;;;;;;;0.50;0.50;;;;;;;;;;7366354;19;20460;-71
2022/10/17 13:00:26;;;;;;;0.50;0.50;;;;;;;;;;7384912;19;20161;-71
2022/10/17 13:02:53;;;;;;;0.35;0.35;;;;;;;;;;7391703;19;20506;-71
2022/10/17 13:05:31;;;;;;;0.40;0.40;;;;;;;;;;7389368;19;20152;-71
2022/10/17 13:08:01;;;;;;;0.50;0.50;;;;;;;;;;7382535;19;20120;-71
2022/10/17 13:10:28;;;;;;;0.60;0.60;;;;;;;;;;7385055;19;20121;-71
2022/10/17 13:13:04;;;;;;;0.43;0.43;;;;;;;;;;7390002;19;20586;-71
2022/10/17 13:15:29;;;;;;;0.40;0.40;;;;;;;;;;7387459;19;20451;-72
2022/10/17 13:17:59;;;;;;;0.40;0.40;;;;;;;;;;7392287;19;20156;-71
2022/10/17 13:20:27;;;;;;;0.47;0.47;;;;;;;;;;7389706;19;20129;-71
2022/10/17 13:22:53;;;;;;;0.50;0.50;;;;;;;;;;7386916;19;20124;-71
2022/10/17 13:25:19;;;;;;;0.60;0.60;;;;;;;;;;7380325;19;20491;-71
2022/10/17 13:27:45;;;;;;;0.43;0.43;;;;;;;;;;7388008;19;20578;-72
2022/10/17 13:30:32;;;;;;;0.40;0.40;;;;;;;;;;7377028;19;20121;-71
2022/10/17 13:32:58;;;;;;;0.40;0.40;;;;;;;;;;7385400;19;20128;-71
2022/10/17 13:35:25;;;;;;;0.45;0.45;;;;;;;;;;7383033;19;20148;-71
2022/10/17 13:37:51;;;;;;;0.40;0.40;;;;;;;;;;7387987;19;20134;-71
2022/10/17 13:40:22;;;;;;;0.65;0.65;;;;;;;;;;7390001;19;20136;-72
2022/10/17 13:42:48;;;;;;;0.40;0.40;;;;;;;;;;7390802;19;20129;-71
2022/10/17 13:45:28;;;;;;;0.50;0.50;;;;;;;;;;7388919;19;20148;-71
2022/10/17 13:47:54;;;;;;;0.50;0.50;;;;;;;;;;7390941;19;20132;-72
2022/10/17 13:50:23;;;;;;;0.40;0.40;;;;;;;;;;7387298;19;20136;-71
2022/10/17 13:53:05;;;;;;;0.40;0.40;;;;;;;;;;7386023;19;20141;-71
2022/10/17 13:55:30;;;;;;;0.50;0.50;;;;;;;;;;7387537;19;20156;-71
2022/10/17 13:57:56;;;;;;;0.30;0.30;;;;;;;;;;7391056;19;20121;-71
2022/10/17 14:00:21;;;;;;;0.32;0.32;;;;;;;;;;7391821;19;20236;-71
2022/10/17 14:02:47;;;;;;;0.40;0.40;;;;;;;;;;7386973;19;20153;-71
2022/10/17 14:05:18;;;;;;;0.30;0.30;;;;;;;;;;7388295;19;20697;-71
2022/10/17 14:07:57;;;;;;;0.30;0.30;;;;;;;;;;7383799;19;20125;-71
2022/10/17 14:10:26;;;;;;;0.40;0.40;;;;;;;;;;7386221;19;20129;-71
2022/10/17 14:12:53;;;;;;;0.30;0.30;;;;;;;;;;7380282;19;20141;-71
2022/10/17 14:15:21;;;;;;;0.68;0.68;;;;;;;;;;7386598;19;20153;-71
2022/10/17 14:17:53;;;;;;;0.30;0.30;;;;;;;;;;7380377;19;20215;-71
2022/10/17 14:20:20;;;;;;;0.30;0.30;;;;;;;;;;7379474;19;20125;-71
2022/10/17 14:22:46;;;;;;;0.30;0.30;;;;;;;;;;7366284;19;20557;-71
2022/10/17 14:25:34;;;;;;;1.75;0.40;;;;;;;;;;7365142;19;20179;-71
2022/10/17 14:28:06;;;;;;;0.30;0.30;;;;;;;;;;7386197;19;20455;-71
2022/10/17 14:30:35;;;;;;;0.30;0.30;;;;;;;;;;7383160;19;20151;-71
2022/10/17 14:33:02;;;;;;;0.47;0.47;;;;;;;;;;7388919;19;20617;-71
2022/10/17 14:35:41;;;;;;;0.32;0.32;;;;;;;;;;7381577;19;20178;-72
2022/10/17 14:38:13;;;;;;;3.05;0.65;;;;;;;;;;7386218;19;21045;-72
2022/10/17 14:40:49;;;;;;;2.00;0.40;;;;;;;;;;7381404;19;20120;-72
2022/10/17 14:43:19;;;;;;;0.30;0.30;;;;;;;;;;7383958;19;20136;-72
2022/10/17 14:45:45;;;;;;;0.30;0.30;;;;;;;;;;7387915;19;20176;-71
2022/10/17 14:48:13;;;;;;;0.30;0.30;;;;;;;;;;7388479;19;20125;-71
2022/10/17 14:50:38;;;;;;;0.40;0.40;;;;;;;;;;7381557;19;20121;-71
2022/10/17 14:53:16;;;;;;;0.30;0.30;;;;;;;;;;7379383;19;20146;-71
2022/10/17 14:55:54;;;;;;;0.30;0.30;;;;;;;;;;7376571;19;20656;-70
2022/10/17 14:58:30;;;;;;;0.30;0.30;;;;;;;;;;7382938;19;20124;-70
2022/10/17 15:00:57;;;;;;;0.32;0.32;;;;;;;;;;7380477;19;20117;-72
2022/10/17 15:03:23;;;;;;;0.30;0.30;;;;;;;;;;7378676;19;20129;-72